Saga Sapphire — 9HOF8 — position and weather

sailwx.info

Track history (hours):
 
Tides and Currents Weather Stations Pressure Air Temp Water Temp Dewpoint Dewpoint Depression Visibility Wind Speed Wind Dir Waves Ship Positions

Saga Sapphire

Last reported at 2014-Jul-31 23:33 UTC. Time now 2014-Jul-31 23:47 UTC.
Position N 52°34' E 003°49'.

Length 200 m; draft 8.3 m.

Type: Passenger vessel. MMSI: 256208000.

Date/timePositionNaut miles runAvg speedWind from/ knotsBaromVisibWave heightAir tempDewpointWater temp
2014-Jul-31 23:33N 52°34' E 003°49'1515.2
2014-Jul-31 22:33N 52°23' E 003°32'2340.7
2014-Jul-31 22:00N 52°06' E 003°06'717.3 190 / 161012.810.8 1.019.515.618.5
2014-Jul-31 21:33N 52°12' E 003°14'1616.2
2014-Jul-31 20:33N 52°00' E 002°55'1716.8
2014-Jul-31 19:33N 51°47' E 002°38'1717.1
2014-Jul-31 18:33N 51°35' E 002°19'1817.9
2014-Jul-31 17:33N 51°21' E 002°01'1716.6
2014-Jul-31 16:33N 51°10' E 001°40'14 3.3
2014-Jul-31 12:17N 51°07' E 001°19'0 0.0
2014-Jul-31 06:28N 51°07' E 001°19'9 9.4
2014-Jul-31 05:34N 51°10' E 001°32'1413.8
2014-Jul-31 04:33N 51°22' E 001°43'1413.7
2014-Jul-31 03:33N 51°34' E 001°54'1413.6
2014-Jul-31 02:33N 51°45' E 002°06'1514.8
2014-Jul-31 01:34N 51°59' E 002°16'1616.5
2014-Jul-31 00:34N 52°15' E 002°22'1817.6
2014-Jul-30 23:32N 52°32' E 002°29'1817.8
2014-Jul-30 22:31N 52°50' E 002°36'1630.9
2014-Jul-30 22:00N 53°06' E 002°36'13615.1 270 / 151013.810.8 1.017.714.518.5
2014-Jul-30 13:00N 55°18' E 003°30'7819.6 230 / 201010.810.8 1.020.014.915.0
2014-Jul-30 09:00N 56°36' E 003°42'10813.5 250 / 101009.8
2014-Jul-30 01:00N 58°24' E 003°54'5518.3 240 / 151007.810.8 1.017.013.5
2014-Jul-29 22:00N 59°18' E 004°12'   230 / 151007.8 5.4 1.017.013.516.2
2014-Jul-26 18:26N 59°29' E 005°00'1112.9
2014-Jul-26 17:33N 59°23' E 005°18'1212.0
2014-Jul-26 16:33N 59°11' E 005°22'1313.0
2014-Jul-26 15:33N 59°01' E 005°39'4 3.8
2014-Jul-26 14:33N 58°58' E 005°44'0 0.0
2014-Jul-26 13:33N 58°58' E 005°44'0 0.0
2014-Jul-26 12:33N 58°58' E 005°44'0 0.0
2014-Jul-26 11:33N 58°58' E 005°44'0 0.0
2014-Jul-26 10:33N 58°58' E 005°44'0 0.0
2014-Jul-26 09:33N 58°58' E 005°44'0 0.0
2014-Jul-26 08:33N 58°58' E 005°44'0 0.0
2014-Jul-26 07:33N 58°58' E 005°44'0 0.0
2014-Jul-26 06:33N 58°58' E 005°44'0 0.3
2014-Jul-26 05:34N 58°59' E 005°43'6 6.0
2014-Jul-26 04:34N 59°01' E 005°33'1211.7
2014-Jul-26 03:33N 58°50' E 005°26'1211.5
2014-Jul-26 02:33N 58°39' E 005°16'1211.9
2014-Jul-26 01:31N 58°28' E 005°09'1313.1
2014-Jul-26 00:33N 58°16' E 005°03'8113.3
2014-Jul-25 18:30N 56°56' E 004°37'5413.7
2014-Jul-25 14:33N 56°03' E 004°18'1813.5
2014-Jul-25 13:13N 55°46' E 004°11'913.7
2014-Jul-25 12:33N 55°37' E 004°07'3313.6
2014-Jul-25 10:07N 55°04' E 003°54'913.8
2014-Jul-25 09:29N 54°56' E 003°51'1313.8
2014-Jul-25 08:33N 54°43' E 003°46'1414.4
2014-Jul-25 07:34N 54°29' E 003°40'1514.7
2014-Jul-25 06:33N 54°15' E 003°35'1515.1
2014-Jul-25 05:33N 54°00' E 003°29'1515.2
2014-Jul-25 04:34N 53°47' E 003°18'1616.1
2014-Jul-25 03:33N 53°33' E 003°04'1616.3
2014-Jul-25 02:33N 53°19' E 002°51'1716.7
2014-Jul-25 01:33N 53°03' E 002°40'2016.8
2014-Jul-25 00:21N 52°43' E 002°35'1316.5
2014-Jul-24 23:33N 52°31' E 002°28'1616.1
2014-Jul-24 22:34N 52°15' E 002°22'1615.6
2014-Jul-24 21:33N 51°60' E 002°15'1514.8
2014-Jul-24 20:33N 51°46' E 002°06'1514.7
2014-Jul-24 19:33N 51°34' E 001°54'1413.7
2014-Jul-24 18:33N 51°22' E 001°43'1312.6
2014-Jul-24 17:33N 51°10' E 001°34'10 8.6
2014-Jul-24 16:26N 51°07' E 001°20'0 0.0
2014-Jul-24 07:10N 51°07' E 001°19'0 0.0
2014-Jul-24 06:28N 51°07' E 001°19'3 2.8
2014-Jul-24 05:34N 51°08' E 001°23'1111.1
2014-Jul-24 04:34N 51°13' E 001°38'1514.8
2014-Jul-24 03:34N 51°27' E 001°47'1413.6
2014-Jul-24 02:33N 51°38' E 001°59'1313.1
2014-Jul-24 01:33N 51°50' E 002°10'1212.5
2014-Jul-24 00:33N 52°02' E 002°16'1312.5
2014-Jul-23 23:31N 52°14' E 002°21'1212.9
2014-Jul-23 22:33N 52°26' E 002°26'1414.0
2014-Jul-23 21:33N 52°40' E 002°32'1514.7
2014-Jul-23 20:33N 52°54' E 002°38'1615.8
2014-Jul-23 19:33N 53°10' E 002°41'1616.0
2014-Jul-23 18:33N 53°25' E 002°50'1615.6
2014-Jul-23 17:33N 53°39' E 002°59'1514.9
2014-Jul-23 16:33N 53°52' E 003°12'1514.2
2014-Jul-23 15:32N 54°01' E 003°31'1614.7
2014-Jul-23 14:25N 54°15' E 003°47'1414.8
2014-Jul-23 13:26N 54°26' E 004°01'1315.1
2014-Jul-23 12:33N 54°36' E 004°18'25715.8
2014-Jul-22 20:14N 57°38' E 009°44'1015.6
2014-Jul-22 19:33N 57°42' E 010°02'1616.0
2014-Jul-22 18:33N 57°49' E 010°30'1514.7
2014-Jul-22 17:34N 57°46' E 010°57'1615.6
2014-Jul-22 16:34N 57°39' E 011°22'1010.4
2014-Jul-22 15:33N 57°38' E 011°42'5 0.8
2014-Jul-22 08:30N 57°42' E 011°49'0 0.0
2014-Jul-22 07:30N 57°42' E 011°49'0 0.0
2014-Jul-22 06:33N 57°42' E 011°49'0 0.1
2014-Jul-22 05:33N 57°42' E 011°49'8 7.7
2014-Jul-22 04:33N 57°36' E 011°39'1111.3
2014-Jul-22 03:33N 57°25' E 011°37'1413.7
2014-Jul-22 02:33N 57°11' E 011°38'1413.5
2014-Jul-22 01:30N 56°58' E 011°47'1313.4
2014-Jul-22 00:33N 56°45' E 011°54'  
Track history (hours):
 
Tides and Currents Weather Stations Pressure Air Temp Water Temp Dewpoint Dewpoint Depression Visibility Wind Speed Wind Dir Waves Ship Positions

Saga Sapphire

Last reported at 2014-Jul-31 23:33 UTC. Time now 2014-Jul-31 23:47 UTC.
Position N 52°34' E 003°49'.

Length 200 m; draft 8.3 m.

Type: Passenger vessel. MMSI: 256208000.

Date/timePositionNaut miles runAvg speedWind from/ knotsBaromVisibWave heightAir tempDewpointWater temp
2014-Jul-31 23:33N 52°34' E 003°49'1515.2
2014-Jul-31 22:33N 52°23' E 003°32'2340.7
2014-Jul-31 22:00N 52°06' E 003°06'717.3 190 / 161012.810.8 1.019.515.618.5
2014-Jul-31 21:33N 52°12' E 003°14'1616.2
2014-Jul-31 20:33N 52°00' E 002°55'1716.8
2014-Jul-31 19:33N 51°47' E 002°38'1717.1
2014-Jul-31 18:33N 51°35' E 002°19'1817.9
2014-Jul-31 17:33N 51°21' E 002°01'1716.6
2014-Jul-31 16:33N 51°10' E 001°40'14 3.3
2014-Jul-31 12:17N 51°07' E 001°19'0 0.0
2014-Jul-31 06:28N 51°07' E 001°19'9 9.4
2014-Jul-31 05:34N 51°10' E 001°32'1413.8
2014-Jul-31 04:33N 51°22' E 001°43'1413.7
2014-Jul-31 03:33N 51°34' E 001°54'1413.6
2014-Jul-31 02:33N 51°45' E 002°06'1514.8
2014-Jul-31 01:34N 51°59' E 002°16'1616.5
2014-Jul-31 00:34N 52°15' E 002°22'1817.6
2014-Jul-30 23:32N 52°32' E 002°29'1817.8
2014-Jul-30 22:31N 52°50' E 002°36'1630.9
2014-Jul-30 22:00N 53°06' E 002°36'13615.1 270 / 151013.810.8 1.017.714.518.5
2014-Jul-30 13:00N 55°18' E 003°30'7819.6 230 / 201010.810.8 1.020.014.915.0
2014-Jul-30 09:00N 56°36' E 003°42'10813.5 250 / 101009.8
2014-Jul-30 01:00N 58°24' E 003°54'5518.3 240 / 151007.810.8 1.017.013.5
2014-Jul-29 22:00N 59°18' E 004°12'   230 / 151007.8 5.4 1.017.013.516.2
2014-Jul-26 18:26N 59°29' E 005°00'1112.9
2014-Jul-26 17:33N 59°23' E 005°18'1212.0
2014-Jul-26 16:33N 59°11' E 005°22'1313.0
2014-Jul-26 15:33N 59°01' E 005°39'4 3.8
2014-Jul-26 14:33N 58°58' E 005°44'0 0.0
2014-Jul-26 13:33N 58°58' E 005°44'0 0.0
2014-Jul-26 12:33N 58°58' E 005°44'0 0.0
2014-Jul-26 11:33N 58°58' E 005°44'0 0.0
2014-Jul-26 10:33N 58°58' E 005°44'0 0.0
2014-Jul-26 09:33N 58°58' E 005°44'0 0.0
2014-Jul-26 08:33N 58°58' E 005°44'0 0.0
2014-Jul-26 07:33N 58°58' E 005°44'0 0.0
2014-Jul-26 06:33N 58°58' E 005°44'0 0.3
2014-Jul-26 05:34N 58°59' E 005°43'6 6.0
2014-Jul-26 04:34N 59°01' E 005°33'1211.7
2014-Jul-26 03:33N 58°50' E 005°26'1211.5
2014-Jul-26 02:33N 58°39' E 005°16'1211.9
2014-Jul-26 01:31N 58°28' E 005°09'1313.1
2014-Jul-26 00:33N 58°16' E 005°03'8113.3
2014-Jul-25 18:30N 56°56' E 004°37'5413.7
2014-Jul-25 14:33N 56°03' E 004°18'1813.5
2014-Jul-25 13:13N 55°46' E 004°11'913.7
2014-Jul-25 12:33N 55°37' E 004°07'3313.6
2014-Jul-25 10:07N 55°04' E 003°54'913.8
2014-Jul-25 09:29N 54°56' E 003°51'1313.8
2014-Jul-25 08:33N 54°43' E 003°46'1414.4
2014-Jul-25 07:34N 54°29' E 003°40'1514.7
2014-Jul-25 06:33N 54°15' E 003°35'1515.1
2014-Jul-25 05:33N 54°00' E 003°29'1515.2
2014-Jul-25 04:34N 53°47' E 003°18'1616.1
2014-Jul-25 03:33N 53°33' E 003°04'1616.3
2014-Jul-25 02:33N 53°19' E 002°51'1716.7
2014-Jul-25 01:33N 53°03' E 002°40'2016.8
2014-Jul-25 00:21N 52°43' E 002°35'1316.5
2014-Jul-24 23:33N 52°31' E 002°28'1616.1
2014-Jul-24 22:34N 52°15' E 002°22'1615.6
2014-Jul-24 21:33N 51°60' E 002°15'1514.8
2014-Jul-24 20:33N 51°46' E 002°06'1514.7
2014-Jul-24 19:33N 51°34' E 001°54'1413.7
2014-Jul-24 18:33N 51°22' E 001°43'1312.6
2014-Jul-24 17:33N 51°10' E 001°34'10 8.6
2014-Jul-24 16:26N 51°07' E 001°20'0 0.0
2014-Jul-24 07:10N 51°07' E 001°19'0 0.0
2014-Jul-24 06:28N 51°07' E 001°19'3 2.8
2014-Jul-24 05:34N 51°08' E 001°23'1111.1
2014-Jul-24 04:34N 51°13' E 001°38'1514.8
2014-Jul-24 03:34N 51°27' E 001°47'1413.6
2014-Jul-24 02:33N 51°38' E 001°59'1313.1
2014-Jul-24 01:33N 51°50' E 002°10'1212.5
2014-Jul-24 00:33N 52°02' E 002°16'1312.5
2014-Jul-23 23:31N 52°14' E 002°21'1212.9
2014-Jul-23 22:33N 52°26' E 002°26'1414.0
2014-Jul-23 21:33N 52°40' E 002°32'1514.7
2014-Jul-23 20:33N 52°54' E 002°38'1615.8
2014-Jul-23 19:33N 53°10' E 002°41'1616.0
2014-Jul-23 18:33N 53°25' E 002°50'1615.6
2014-Jul-23 17:33N 53°39' E 002°59'1514.9
2014-Jul-23 16:33N 53°52' E 003°12'1514.2
2014-Jul-23 15:32N 54°01' E 003°31'1614.7
2014-Jul-23 14:25N 54°15' E 003°47'1414.8
2014-Jul-23 13:26N 54°26' E 004°01'1315.1
2014-Jul-23 12:33N 54°36' E 004°18'25715.8
2014-Jul-22 20:14N 57°38' E 009°44'1015.6
2014-Jul-22 19:33N 57°42' E 010°02'1616.0
2014-Jul-22 18:33N 57°49' E 010°30'1514.7
2014-Jul-22 17:34N 57°46' E 010°57'1615.6
2014-Jul-22 16:34N 57°39' E 011°22'1010.4
2014-Jul-22 15:33N 57°38' E 011°42'5 0.8
2014-Jul-22 08:30N 57°42' E 011°49'0 0.0
2014-Jul-22 07:30N 57°42' E 011°49'0 0.0
2014-Jul-22 06:33N 57°42' E 011°49'0 0.1
2014-Jul-22 05:33N 57°42' E 011°49'8 7.7
2014-Jul-22 04:33N 57°36' E 011°39'1111.3
2014-Jul-22 03:33N 57°25' E 011°37'1413.7
2014-Jul-22 02:33N 57°11' E 011°38'1413.5
2014-Jul-22 01:30N 56°58' E 011°47'1313.4
2014-Jul-22 00:33N 56°45' E 011°54'  

Dump ship's entire track history